sensor_id;sensor_type;location;lat;lon;timestamp;P1;durP1;ratioP1;P2;durP2;ratioP2
46561;SDS011;32289;42.688;23.330;2023-02-18T00:02:50;11.55;;;5.68;;
46561;SDS011;32289;42.688;23.330;2023-02-18T00:06:33;11.40;;;5.32;;
46561;SDS011;32289;42.688;23.330;2023-02-18T00:10:15;11.23;;;4.93;;
46561;SDS011;32289;42.688;23.330;2023-02-18T00:13:57;14.32;;;5.28;;
46561;SDS011;32289;42.688;23.330;2023-02-18T00:17:39;15.13;;;5.97;;
46561;SDS011;32289;42.688;23.330;2023-02-18T00:21:20;18.85;;;6.53;;
46561;SDS011;32289;42.688;23.330;2023-02-18T00:38:47;13.65;;;6.38;;
46561;SDS011;32289;42.688;23.330;2023-02-18T00:42:33;19.60;;;6.97;;
46561;SDS011;32289;42.688;23.330;2023-02-18T00:46:18;15.02;;;6.80;;
46561;SDS011;32289;42.688;23.330;2023-02-18T00:50:09;16.90;;;6.60;;
46561;SDS011;32289;42.688;23.330;2023-02-18T00:53:59;17.88;;;6.60;;
46561;SDS011;32289;42.688;23.330;2023-02-18T00:57:46;19.55;;;7.20;;
46561;SDS011;32289;42.688;23.330;2023-02-18T01:01:27;15.68;;;7.97;;
46561;SDS011;32289;42.688;23.330;2023-02-18T01:05:08;26.30;;;8.55;;
46561;SDS011;32289;42.688;23.330;2023-02-18T01:08:49;12.45;;;5.68;;
46561;SDS011;32289;42.688;23.330;2023-02-18T01:12:30;21.55;;;6.97;;
46561;SDS011;32289;42.688;23.330;2023-02-18T01:16:11;16.90;;;7.32;;
46561;SDS011;32289;42.688;23.330;2023-02-18T01:19:52;15.77;;;7.10;;
46561;SDS011;32289;42.688;23.330;2023-02-18T01:23:33;17.52;;;7.28;;
46561;SDS011;32289;42.688;23.330;2023-02-18T01:27:14;15.73;;;7.78;;
46561;SDS011;32289;42.688;23.330;2023-02-18T01:30:55;16.40;;;6.68;;
46561;SDS011;32289;42.688;23.330;2023-02-18T01:34:36;19.58;;;7.05;;
46561;SDS011;32289;42.688;23.330;2023-02-18T01:38:16;11.93;;;5.95;;
46561;SDS011;32289;42.688;23.330;2023-02-18T01:41:57;18.73;;;7.07;;
46561;SDS011;32289;42.688;23.330;2023-02-18T01:49:44;13.23;;;6.05;;
46561;SDS011;32289;42.688;23.330;2023-02-18T01:53:35;12.38;;;5.90;;
46561;SDS011;32289;42.688;23.330;2023-02-18T01:57:40;15.25;;;6.45;;
46561;SDS011;32289;42.688;23.330;2023-02-18T02:01:21;17.05;;;5.82;;
46561;SDS011;32289;42.688;23.330;2023-02-18T02:05:03;17.35;;;5.97;;
46561;SDS011;32289;42.688;23.330;2023-02-18T02:08:44;15.60;;;6.20;;
46561;SDS011;32289;42.688;23.330;2023-02-18T02:16:20;13.98;;;5.88;;
46561;SDS011;32289;42.688;23.330;2023-02-18T02:20:17;14.23;;;6.57;;
46561;SDS011;32289;42.688;23.330;2023-02-18T02:40:21;13.27;;;6.90;;
46561;SDS011;32289;42.688;23.330;2023-02-18T02:44:21;17.67;;;6.25;;
46561;SDS011;32289;42.688;23.330;2023-02-18T02:52:16;10.32;;;5.90;;
46561;SDS011;32289;42.688;23.330;2023-02-18T02:56:20;19.58;;;6.72;;
46561;SDS011;32289;42.688;23.330;2023-02-18T03:00:05;18.90;;;5.60;;
46561;SDS011;32289;42.688;23.330;2023-02-18T03:12:00;13.00;;;5.20;;
46561;SDS011;32289;42.688;23.330;2023-02-18T03:15:56;10.80;;;5.85;;
46561;SDS011;32289;42.688;23.330;2023-02-18T03:19:48;14.88;;;5.68;;
46561;SDS011;32289;42.688;23.330;2023-02-18T03:23:35;12.68;;;4.65;;
46561;SDS011;32289;42.688;23.330;2023-02-18T03:27:40;16.67;;;6.18;;
46561;SDS011;32289;42.688;23.330;2023-02-18T03:31:29;13.60;;;5.30;;
46561;SDS011;32289;42.688;23.330;2023-02-18T03:35:15;18.60;;;4.95;;
46561;SDS011;32289;42.688;23.330;2023-02-18T03:39:04;12.18;;;6.28;;
46561;SDS011;32289;42.688;23.330;2023-02-18T03:42:48;16.75;;;7.28;;
46561;SDS011;32289;42.688;23.330;2023-02-18T03:46:29;15.13;;;6.35;;
46561;SDS011;32289;42.688;23.330;2023-02-18T03:50:11;23.15;;;7.60;;
46561;SDS011;32289;42.688;23.330;2023-02-18T03:53:51;24.35;;;11.20;;
46561;SDS011;32289;42.688;23.330;2023-02-18T03:57:32;24.75;;;9.10;;
46561;SDS011;32289;42.688;23.330;2023-02-18T04:01:15;19.10;;;7.50;;
46561;SDS011;32289;42.688;23.330;2023-02-18T04:04:56;21.73;;;8.82;;
46561;SDS011;32289;42.688;23.330;2023-02-18T04:08:37;21.50;;;9.30;;
46561;SDS011;32289;42.688;23.330;2023-02-18T04:12:17;11.90;;;6.03;;
46561;SDS011;32289;42.688;23.330;2023-02-18T04:15:58;19.02;;;9.20;;
46561;SDS011;32289;42.688;23.330;2023-02-18T04:19:39;20.55;;;8.48;;
46561;SDS011;32289;42.688;23.330;2023-02-18T04:23:20;12.70;;;6.18;;
46561;SDS011;32289;42.688;23.330;2023-02-18T04:27:01;24.13;;;8.82;;
46561;SDS011;32289;42.688;23.330;2023-02-18T04:30:42;21.58;;;8.27;;
46561;SDS011;32289;42.688;23.330;2023-02-18T04:34:23;18.67;;;7.93;;
46561;SDS011;32289;42.688;23.330;2023-02-18T04:38:04;19.05;;;6.72;;
46561;SDS011;32289;42.688;23.330;2023-02-18T04:41:45;16.27;;;6.93;;
46561;SDS011;32289;42.688;23.330;2023-02-18T04:45:26;19.98;;;9.90;;
46561;SDS011;32289;42.688;23.330;2023-02-18T04:49:07;22.05;;;8.88;;
46561;SDS011;32289;42.688;23.330;2023-02-18T04:52:48;24.05;;;8.13;;
46561;SDS011;32289;42.688;23.330;2023-02-18T04:56:31;18.15;;;8.68;;
46561;SDS011;32289;42.688;23.330;2023-02-18T05:00:16;20.05;;;10.38;;
46561;SDS011;32289;42.688;23.330;2023-02-18T05:03:58;19.52;;;8.23;;
46561;SDS011;32289;42.688;23.330;2023-02-18T05:07:38;19.60;;;7.13;;
46561;SDS011;32289;42.688;23.330;2023-02-18T05:11:21;15.82;;;8.20;;
46561;SDS011;32289;42.688;23.330;2023-02-18T05:15:02;23.23;;;8.65;;
46561;SDS011;32289;42.688;23.330;2023-02-18T05:18:43;20.60;;;8.48;;
46561;SDS011;32289;42.688;23.330;2023-02-18T05:22:23;17.95;;;7.70;;
46561;SDS011;32289;42.688;23.330;2023-02-18T05:26:07;16.65;;;7.63;;
46561;SDS011;32289;42.688;23.330;2023-02-18T05:29:47;18.88;;;6.93;;
46561;SDS011;32289;42.688;23.330;2023-02-18T05:33:28;18.80;;;7.93;;
46561;SDS011;32289;42.688;23.330;2023-02-18T05:37:09;19.55;;;8.75;;
46561;SDS011;32289;42.688;23.330;2023-02-18T05:40:50;17.40;;;8.38;;
46561;SDS011;32289;42.688;23.330;2023-02-18T05:44:31;19.75;;;9.05;;
46561;SDS011;32289;42.688;23.330;2023-02-18T05:48:12;10.95;;;6.20;;
46561;SDS011;32289;42.688;23.330;2023-02-18T05:51:53;11.75;;;6.80;;
46561;SDS011;32289;42.688;23.330;2023-02-18T05:55:34;18.13;;;7.75;;
46561;SDS011;32289;42.688;23.330;2023-02-18T05:59:18;17.40;;;6.13;;
46561;SDS011;32289;42.688;23.330;2023-02-18T06:03:01;16.10;;;6.60;;
46561;SDS011;32289;42.688;23.330;2023-02-18T06:06:41;17.27;;;7.22;;
46561;SDS011;32289;42.688;23.330;2023-02-18T06:10:22;13.07;;;7.93;;
46561;SDS011;32289;42.688;23.330;2023-02-18T06:14:03;24.80;;;7.65;;
46561;SDS011;32289;42.688;23.330;2023-02-18T06:17:46;13.43;;;5.63;;
46561;SDS011;32289;42.688;23.330;2023-02-18T06:21:32;17.55;;;6.68;;
46561;SDS011;32289;42.688;23.330;2023-02-18T06:25:13;15.45;;;6.72;;
46561;SDS011;32289;42.688;23.330;2023-02-18T06:28:54;14.25;;;6.45;;
46561;SDS011;32289;42.688;23.330;2023-02-18T06:32:35;19.55;;;7.85;;
46561;SDS011;32289;42.688;23.330;2023-02-18T06:36:16;21.20;;;8.15;;
46561;SDS011;32289;42.688;23.330;2023-02-18T06:39:56;15.50;;;7.30;;
46561;SDS011;32289;42.688;23.330;2023-02-18T06:43:37;24.77;;;6.15;;
46561;SDS011;32289;42.688;23.330;2023-02-18T06:47:18;15.32;;;7.03;;
46561;SDS011;32289;42.688;23.330;2023-02-18T06:50:59;10.55;;;5.03;;
46561;SDS011;32289;42.688;23.330;2023-02-18T06:54:40;23.05;;;6.82;;
46561;SDS011;32289;42.688;23.330;2023-02-18T06:58:21;12.20;;;6.90;;
46561;SDS011;32289;42.688;23.330;2023-02-18T07:02:02;18.70;;;5.00;;
46561;SDS011;32289;42.688;23.330;2023-02-18T07:05:43;17.83;;;7.60;;
46561;SDS011;32289;42.688;23.330;2023-02-18T07:09:23;16.00;;;5.82;;
46561;SDS011;32289;42.688;23.330;2023-02-18T07:13:04;14.98;;;5.90;;
46561;SDS011;32289;42.688;23.330;2023-02-18T07:16:45;14.93;;;5.63;;
46561;SDS011;32289;42.688;23.330;2023-02-18T07:20:26;14.20;;;5.13;;
46561;SDS011;32289;42.688;23.330;2023-02-18T07:24:07;17.77;;;7.20;;
46561;SDS011;32289;42.688;23.330;2023-02-18T07:27:50;10.18;;;5.65;;
46561;SDS011;32289;42.688;23.330;2023-02-18T07:31:31;22.40;;;6.65;;
46561;SDS011;32289;42.688;23.330;2023-02-18T07:35:15;14.68;;;5.55;;
46561;SDS011;32289;42.688;23.330;2023-02-18T07:38:56;15.30;;;6.40;;
46561;SDS011;32289;42.688;23.330;2023-02-18T07:42:37;16.80;;;8.27;;
46561;SDS011;32289;42.688;23.330;2023-02-18T07:46:18;28.10;;;9.85;;
46561;SDS011;32289;42.688;23.330;2023-02-18T07:49:58;24.05;;;12.35;;
46561;SDS011;32289;42.688;23.330;2023-02-18T07:53:39;25.85;;;10.43;;
46561;SDS011;32289;42.688;23.330;2023-02-18T07:57:20;24.23;;;10.38;;
46561;SDS011;32289;42.688;23.330;2023-02-18T08:01:05;20.88;;;8.27;;
46561;SDS011;32289;42.688;23.330;2023-02-18T08:04:47;12.70;;;7.43;;
46561;SDS011;32289;42.688;23.330;2023-02-18T08:08:29;21.17;;;6.90;;
46561;SDS011;32289;42.688;23.330;2023-02-18T08:12:10;13.75;;;6.70;;
46561;SDS011;32289;42.688;23.330;2023-02-18T08:15:53;12.30;;;5.13;;
46561;SDS011;32289;42.688;23.330;2023-02-18T08:19:37;15.07;;;6.13;;
46561;SDS011;32289;42.688;23.330;2023-02-18T08:23:19;13.18;;;5.60;;
46561;SDS011;32289;42.688;23.330;2023-02-18T08:27:01;17.33;;;6.95;;
46561;SDS011;32289;42.688;23.330;2023-02-18T08:30:45;15.85;;;6.05;;
46561;SDS011;32289;42.688;23.330;2023-02-18T08:34:31;18.60;;;6.90;;
46561;SDS011;32289;42.688;23.330;2023-02-18T08:38:12;16.08;;;6.45;;
46561;SDS011;32289;42.688;23.330;2023-02-18T08:41:53;13.40;;;5.90;;
46561;SDS011;32289;42.688;23.330;2023-02-18T08:45:36;16.50;;;6.20;;
46561;SDS011;32289;42.688;23.330;2023-02-18T08:49:17;19.27;;;6.68;;
46561;SDS011;32289;42.688;23.330;2023-02-18T08:53:03;16.48;;;6.47;;
46561;SDS011;32289;42.688;23.330;2023-02-18T08:56:44;12.65;;;5.80;;
46561;SDS011;32289;42.688;23.330;2023-02-18T09:00:25;14.98;;;6.07;;
46561;SDS011;32289;42.688;23.330;2023-02-18T09:04:06;23.30;;;6.55;;
46561;SDS011;32289;42.688;23.330;2023-02-18T09:07:47;15.82;;;7.43;;
46561;SDS011;32289;42.688;23.330;2023-02-18T09:11:28;17.92;;;8.57;;
46561;SDS011;32289;42.688;23.330;2023-02-18T09:15:09;15.63;;;7.15;;
46561;SDS011;32289;42.688;23.330;2023-02-18T09:18:50;13.70;;;6.93;;
46561;SDS011;32289;42.688;23.330;2023-02-18T09:22:31;14.07;;;6.78;;
46561;SDS011;32289;42.688;23.330;2023-02-18T09:26:13;17.42;;;6.72;;
46561;SDS011;32289;42.688;23.330;2023-02-18T09:29:54;16.60;;;7.55;;
46561;SDS011;32289;42.688;23.330;2023-02-18T09:33:35;13.95;;;6.30;;
46561;SDS011;32289;42.688;23.330;2023-02-18T09:37:17;15.27;;;7.50;;
46561;SDS011;32289;42.688;23.330;2023-02-18T09:40:59;16.75;;;6.88;;
46561;SDS011;32289;42.688;23.330;2023-02-18T09:44:44;22.45;;;8.00;;
46561;SDS011;32289;42.688;23.330;2023-02-18T09:48:30;16.80;;;7.22;;
46561;SDS011;32289;42.688;23.330;2023-02-18T09:52:17;15.43;;;7.20;;
46561;SDS011;32289;42.688;23.330;2023-02-18T09:56:02;19.50;;;7.15;;
46561;SDS011;32289;42.688;23.330;2023-02-18T09:59:43;19.95;;;6.82;;
46561;SDS011;32289;42.688;23.330;2023-02-18T10:03:28;14.75;;;6.32;;
46561;SDS011;32289;42.688;23.330;2023-02-18T10:07:14;17.42;;;6.63;;
46561;SDS011;32289;42.688;23.330;2023-02-18T10:11:00;10.95;;;6.28;;
46561;SDS011;32289;42.688;23.330;2023-02-18T10:14:42;13.93;;;5.75;;
46561;SDS011;32289;42.688;23.330;2023-02-18T10:18:29;11.82;;;6.13;;
46561;SDS011;32289;42.688;23.330;2023-02-18T10:22:13;11.93;;;6.35;;
46561;SDS011;32289;42.688;23.330;2023-02-18T10:25:55;11.07;;;5.97;;
46561;SDS011;32289;42.688;23.330;2023-02-18T10:29:36;12.20;;;4.78;;
46561;SDS011;32289;42.688;23.330;2023-02-18T10:37:12;9.57;;;5.50;;
46561;SDS011;32289;42.688;23.330;2023-02-18T10:41:19;9.00;;;4.72;;
46561;SDS011;32289;42.688;23.330;2023-02-18T10:45:11;17.20;;;7.85;;
46561;SDS011;32289;42.688;23.330;2023-02-18T10:49:08;5.18;;;3.20;;
46561;SDS011;32289;42.688;23.330;2023-02-18T10:53:24;10.23;;;5.40;;
46561;SDS011;32289;42.688;23.330;2023-02-18T10:57:20;14.32;;;6.80;;
46561;SDS011;32289;42.688;23.330;2023-02-18T11:01:03;12.98;;;6.13;;
46561;SDS011;32289;42.688;23.330;2023-02-18T11:04:47;10.30;;;4.65;;
46561;SDS011;32289;42.688;23.330;2023-02-18T11:08:38;6.72;;;3.40;;
46561;SDS011;32289;42.688;23.330;2023-02-18T11:12:25;10.60;;;3.90;;
46561;SDS011;32289;42.688;23.330;2023-02-18T11:16:14;6.55;;;3.35;;
46561;SDS011;32289;42.688;23.330;2023-02-18T11:20:18;3.88;;;2.00;;
46561;SDS011;32289;42.688;23.330;2023-02-18T11:27:57;7.85;;;3.03;;
46561;SDS011;32289;42.688;23.330;2023-02-18T11:31:44;4.47;;;2.90;;
46561;SDS011;32289;42.688;23.330;2023-02-18T11:35:29;4.07;;;2.30;;
46561;SDS011;32289;42.688;23.330;2023-02-18T11:39:22;5.32;;;2.72;;
46561;SDS011;32289;42.688;23.330;2023-02-18T11:43:08;7.30;;;3.47;;
46561;SDS011;32289;42.688;23.330;2023-02-18T11:50:42;8.57;;;2.67;;
46561;SDS011;32289;42.688;23.330;2023-02-18T11:54:30;5.68;;;2.58;;
46561;SDS011;32289;42.688;23.330;2023-02-18T11:58:11;7.35;;;3.38;;
46561;SDS011;32289;42.688;23.330;2023-02-18T12:01:56;7.97;;;3.75;;
46561;SDS011;32289;42.688;23.330;2023-02-18T12:05:40;9.43;;;2.60;;
46561;SDS011;32289;42.688;23.330;2023-02-18T12:13:35;5.75;;;2.33;;
46561;SDS011;32289;42.688;23.330;2023-02-18T12:17:25;10.07;;;3.20;;
46561;SDS011;32289;42.688;23.330;2023-02-18T13:11:13;9.48;;;2.83;;
46561;SDS011;32289;42.688;23.330;2023-02-18T13:14:32;6.75;;;2.40;;
46561;SDS011;32289;42.688;23.330;2023-02-18T13:18:38;5.65;;;2.63;;
46561;SDS011;32289;42.688;23.330;2023-02-18T13:22:23;5.22;;;2.55;;
46561;SDS011;32289;42.688;23.330;2023-02-18T13:26:08;10.35;;;3.15;;
46561;SDS011;32289;42.688;23.330;2023-02-18T13:46:11;6.47;;;2.85;;
46561;SDS011;32289;42.688;23.330;2023-02-18T13:49:53;6.85;;;2.53;;
46561;SDS011;32289;42.688;23.330;2023-02-18T13:53:35;7.45;;;3.53;;
46561;SDS011;32289;42.688;23.330;2023-02-18T13:57:21;5.85;;;2.67;;
46561;SDS011;32289;42.688;23.330;2023-02-18T14:01:12;8.50;;;3.53;;
46561;SDS011;32289;42.688;23.330;2023-02-18T14:08:48;7.20;;;2.95;;
46561;SDS011;32289;42.688;23.330;2023-02-18T14:16:13;4.57;;;2.55;;
46561;SDS011;32289;42.688;23.330;2023-02-18T14:19:55;5.05;;;2.40;;
46561;SDS011;32289;42.688;23.330;2023-02-18T14:23:57;6.68;;;3.30;;
46561;SDS011;32289;42.688;23.330;2023-02-18T14:27:41;6.00;;;3.30;;
46561;SDS011;32289;42.688;23.330;2023-02-18T14:39:07;11.98;;;2.72;;
46561;SDS011;32289;42.688;23.330;2023-02-18T14:42:57;4.30;;;2.55;;
46561;SDS011;32289;42.688;23.330;2023-02-18T14:50:24;7.03;;;2.60;;
46561;SDS011;32289;42.688;23.330;2023-02-18T14:54:06;8.65;;;2.53;;
46561;SDS011;32289;42.688;23.330;2023-02-18T15:01:45;9.98;;;2.55;;
46561;SDS011;32289;42.688;23.330;2023-02-18T15:05:28;7.57;;;2.47;;
46561;SDS011;32289;42.688;23.330;2023-02-18T15:09:17;6.03;;;2.50;;
46561;SDS011;32289;42.688;23.330;2023-02-18T15:13:01;7.90;;;2.70;;
46561;SDS011;32289;42.688;23.330;2023-02-18T15:16:43;10.30;;;3.20;;
46561;SDS011;32289;42.688;23.330;2023-02-18T15:20:25;10.10;;;2.47;;
46561;SDS011;32289;42.688;23.330;2023-02-18T15:24:08;14.50;;;5.07;;
46561;SDS011;32289;42.688;23.330;2023-02-18T15:27:56;10.32;;;3.47;;
46561;SDS011;32289;42.688;23.330;2023-02-18T15:31:37;7.18;;;3.20;;
46561;SDS011;32289;42.688;23.330;2023-02-18T15:35:19;5.28;;;2.78;;
46561;SDS011;32289;42.688;23.330;2023-02-18T15:39:02;6.70;;;2.88;;
46561;SDS011;32289;42.688;23.330;2023-02-18T15:42:50;4.53;;;2.33;;
46561;SDS011;32289;42.688;23.330;2023-02-18T15:46:35;9.77;;;2.92;;
46561;SDS011;32289;42.688;23.330;2023-02-18T15:50:17;5.13;;;2.60;;
46561;SDS011;32289;42.688;23.330;2023-02-18T15:54:11;8.90;;;3.20;;
46561;SDS011;32289;42.688;23.330;2023-02-18T15:58:40;4.53;;;2.30;;
46561;SDS011;32289;42.688;23.330;2023-02-18T16:02:15;5.22;;;2.65;;
46561;SDS011;32289;42.688;23.330;2023-02-18T16:06:12;7.15;;;2.85;;
46561;SDS011;32289;42.688;23.330;2023-02-18T16:10:07;6.10;;;2.63;;
46561;SDS011;32289;42.688;23.330;2023-02-18T16:14:31;8.82;;;3.63;;
46561;SDS011;32289;42.688;23.330;2023-02-18T16:22:21;7.97;;;3.25;;
46561;SDS011;32289;42.688;23.330;2023-02-18T16:30:25;10.50;;;3.63;;
46561;SDS011;32289;42.688;23.330;2023-02-18T16:34:08;11.48;;;4.10;;
46561;SDS011;32289;42.688;23.330;2023-02-18T16:37:48;6.35;;;2.90;;
46561;SDS011;32289;42.688;23.330;2023-02-18T16:41:29;8.15;;;2.92;;
46561;SDS011;32289;42.688;23.330;2023-02-18T16:45:13;6.22;;;3.45;;
46561;SDS011;32289;42.688;23.330;2023-02-18T16:48:54;12.63;;;3.90;;
46561;SDS011;32289;42.688;23.330;2023-02-18T16:52:35;7.38;;;3.45;;
46561;SDS011;32289;42.688;23.330;2023-02-18T16:56:17;5.90;;;3.05;;
46561;SDS011;32289;42.688;23.330;2023-02-18T17:00:00;8.77;;;3.50;;
46561;SDS011;32289;42.688;23.330;2023-02-18T17:03:41;6.40;;;3.47;;
46561;SDS011;32289;42.688;23.330;2023-02-18T17:07:22;8.25;;;3.88;;
46561;SDS011;32289;42.688;23.330;2023-02-18T17:11:02;8.35;;;3.53;;
46561;SDS011;32289;42.688;23.330;2023-02-18T17:14:43;8.02;;;3.55;;
46561;SDS011;32289;42.688;23.330;2023-02-18T17:18:25;6.88;;;2.75;;
46561;SDS011;32289;42.688;23.330;2023-02-18T17:22:06;8.30;;;3.55;;
46561;SDS011;32289;42.688;23.330;2023-02-18T17:25:51;5.53;;;3.15;;
46561;SDS011;32289;42.688;23.330;2023-02-18T17:29:32;9.98;;;2.95;;
46561;SDS011;32289;42.688;23.330;2023-02-18T17:33:16;9.23;;;3.58;;
46561;SDS011;32289;42.688;23.330;2023-02-18T17:36:58;6.32;;;2.97;;
46561;SDS011;32289;42.688;23.330;2023-02-18T17:40:38;5.93;;;2.67;;
46561;SDS011;32289;42.688;23.330;2023-02-18T17:44:20;9.15;;;3.72;;
46561;SDS011;32289;42.688;23.330;2023-02-18T17:48:01;8.15;;;3.00;;
46561;SDS011;32289;42.688;23.330;2023-02-18T17:51:43;7.35;;;3.70;;
46561;SDS011;32289;42.688;23.330;2023-02-18T17:55:26;7.18;;;3.33;;
46561;SDS011;32289;42.688;23.330;2023-02-18T17:59:08;7.22;;;3.40;;
46561;SDS011;32289;42.688;23.330;2023-02-18T18:02:50;5.50;;;2.80;;
46561;SDS011;32289;42.688;23.330;2023-02-18T18:06:31;7.13;;;3.30;;
46561;SDS011;32289;42.688;23.330;2023-02-18T18:10:15;12.35;;;3.63;;
46561;SDS011;32289;42.688;23.330;2023-02-18T18:13:57;7.93;;;2.95;;
46561;SDS011;32289;42.688;23.330;2023-02-18T18:17:38;10.48;;;3.28;;
46561;SDS011;32289;42.688;23.330;2023-02-18T18:21:30;8.80;;;2.88;;
46561;SDS011;32289;42.688;23.330;2023-02-18T18:25:25;9.57;;;3.33;;
46561;SDS011;32289;42.688;23.330;2023-02-18T18:29:07;13.15;;;4.78;;
46561;SDS011;32289;42.688;23.330;2023-02-18T18:32:47;10.25;;;4.53;;
46561;SDS011;32289;42.688;23.330;2023-02-18T18:36:28;11.93;;;4.10;;
46561;SDS011;32289;42.688;23.330;2023-02-18T18:40:09;15.38;;;6.38;;
46561;SDS011;32289;42.688;23.330;2023-02-18T18:43:50;11.38;;;5.03;;
46561;SDS011;32289;42.688;23.330;2023-02-18T18:47:31;13.35;;;4.95;;
46561;SDS011;32289;42.688;23.330;2023-02-18T18:51:19;13.07;;;5.03;;
46561;SDS011;32289;42.688;23.330;2023-02-18T18:55:05;19.45;;;6.72;;
46561;SDS011;32289;42.688;23.330;2023-02-18T18:59:09;16.60;;;7.40;;
46561;SDS011;32289;42.688;23.330;2023-02-18T19:02:50;15.05;;;7.10;;
46561;SDS011;32289;42.688;23.330;2023-02-18T19:06:30;14.15;;;4.85;;
46561;SDS011;32289;42.688;23.330;2023-02-18T19:10:11;10.95;;;5.35;;
46561;SDS011;32289;42.688;23.330;2023-02-18T19:13:52;10.98;;;5.18;;
46561;SDS011;32289;42.688;23.330;2023-02-18T19:17:32;8.73;;;3.90;;
46561;SDS011;32289;42.688;23.330;2023-02-18T19:21:13;16.65;;;5.10;;
46561;SDS011;32289;42.688;23.330;2023-02-18T19:24:54;11.73;;;4.40;;
46561;SDS011;32289;42.688;23.330;2023-02-18T19:28:35;9.70;;;4.05;;
46561;SDS011;32289;42.688;23.330;2023-02-18T19:32:16;13.23;;;3.75;;
46561;SDS011;32289;42.688;23.330;2023-02-18T19:35:56;8.52;;;4.13;;
46561;SDS011;32289;42.688;23.330;2023-02-18T19:39:37;8.63;;;3.92;;
46561;SDS011;32289;42.688;23.330;2023-02-18T19:43:17;14.25;;;3.75;;
46561;SDS011;32289;42.688;23.330;2023-02-18T19:46:58;12.23;;;4.60;;
46561;SDS011;32289;42.688;23.330;2023-02-18T19:50:40;12.82;;;4.47;;
46561;SDS011;32289;42.688;23.330;2023-02-18T19:54:22;9.02;;;4.25;;
46561;SDS011;32289;42.688;23.330;2023-02-18T19:58:02;7.70;;;3.70;;
46561;SDS011;32289;42.688;23.330;2023-02-18T20:01:43;13.15;;;4.57;;
46561;SDS011;32289;42.688;23.330;2023-02-18T20:05:24;18.88;;;8.45;;
46561;SDS011;32289;42.688;23.330;2023-02-18T20:09:05;22.67;;;5.22;;
46561;SDS011;32289;42.688;23.330;2023-02-18T20:12:49;15.07;;;4.90;;
46561;SDS011;32289;42.688;23.330;2023-02-18T20:16:31;15.13;;;5.35;;
46561;SDS011;32289;42.688;23.330;2023-02-18T20:20:12;20.85;;;7.43;;
46561;SDS011;32289;42.688;23.330;2023-02-18T20:23:53;15.23;;;5.65;;
46561;SDS011;32289;42.688;23.330;2023-02-18T20:27:34;9.48;;;4.25;;
46561;SDS011;32289;42.688;23.330;2023-02-18T20:31:15;13.88;;;5.78;;
46561;SDS011;32289;42.688;23.330;2023-02-18T20:34:56;16.73;;;5.82;;
46561;SDS011;32289;42.688;23.330;2023-02-18T20:38:37;11.27;;;5.03;;
46561;SDS011;32289;42.688;23.330;2023-02-18T20:42:18;8.70;;;4.60;;
46561;SDS011;32289;42.688;23.330;2023-02-18T20:46:06;12.63;;;5.47;;
46561;SDS011;32289;42.688;23.330;2023-02-18T20:49:49;10.70;;;4.22;;
46561;SDS011;32289;42.688;23.330;2023-02-18T20:53:30;14.82;;;5.82;;
46561;SDS011;32289;42.688;23.330;2023-02-18T20:57:12;16.50;;;6.68;;
46561;SDS011;32289;42.688;23.330;2023-02-18T21:00:56;13.63;;;5.07;;
46561;SDS011;32289;42.688;23.330;2023-02-18T21:04:42;12.25;;;4.03;;
46561;SDS011;32289;42.688;23.330;2023-02-18T21:08:24;9.52;;;3.95;;
46561;SDS011;32289;42.688;23.330;2023-02-18T21:12:06;15.60;;;4.35;;
46561;SDS011;32289;42.688;23.330;2023-02-18T21:15:48;11.02;;;3.92;;
46561;SDS011;32289;42.688;23.330;2023-02-18T21:19:29;10.18;;;4.07;;
46561;SDS011;32289;42.688;23.330;2023-02-18T21:23:13;8.75;;;3.97;;
46561;SDS011;32289;42.688;23.330;2023-02-18T21:26:53;12.20;;;5.57;;
46561;SDS011;32289;42.688;23.330;2023-02-18T21:30:35;10.63;;;4.47;;
46561;SDS011;32289;42.688;23.330;2023-02-18T21:34:17;10.90;;;4.30;;
46561;SDS011;32289;42.688;23.330;2023-02-18T21:37:58;11.18;;;4.78;;
46561;SDS011;32289;42.688;23.330;2023-02-18T21:41:39;22.13;;;5.20;;
46561;SDS011;32289;42.688;23.330;2023-02-18T21:45:20;8.70;;;4.32;;
46561;SDS011;32289;42.688;23.330;2023-02-18T21:49:01;16.70;;;5.43;;
46561;SDS011;32289;42.688;23.330;2023-02-18T21:52:46;10.40;;;3.83;;
46561;SDS011;32289;42.688;23.330;2023-02-18T21:56:27;16.15;;;6.85;;
46561;SDS011;32289;42.688;23.330;2023-02-18T22:00:07;7.80;;;4.18;;
46561;SDS011;32289;42.688;23.330;2023-02-18T22:03:50;9.70;;;4.53;;
46561;SDS011;32289;42.688;23.330;2023-02-18T22:07:32;8.23;;;3.72;;
46561;SDS011;32289;42.688;23.330;2023-02-18T22:11:17;11.70;;;4.15;;
46561;SDS011;32289;42.688;23.330;2023-02-18T22:14:57;9.88;;;4.40;;
46561;SDS011;32289;42.688;23.330;2023-02-18T22:18:40;10.10;;;3.72;;
46561;SDS011;32289;42.688;23.330;2023-02-18T22:22:21;9.95;;;3.85;;
46561;SDS011;32289;42.688;23.330;2023-02-18T22:26:07;10.23;;;4.00;;
46561;SDS011;32289;42.688;23.330;2023-02-18T22:29:52;8.70;;;4.80;;
46561;SDS011;32289;42.688;23.330;2023-02-18T22:33:33;19.75;;;4.40;;
46561;SDS011;32289;42.688;23.330;2023-02-18T22:37:21;9.55;;;4.20;;
46561;SDS011;32289;42.688;23.330;2023-02-18T22:41:06;13.95;;;3.92;;
46561;SDS011;32289;42.688;23.330;2023-02-18T22:44:51;8.60;;;3.22;;
46561;SDS011;32289;42.688;23.330;2023-02-18T22:48:34;11.80;;;4.50;;
46561;SDS011;32289;42.688;23.330;2023-02-18T22:52:36;10.80;;;3.58;;
46561;SDS011;32289;42.688;23.330;2023-02-18T22:56:17;10.45;;;3.50;;
46561;SDS011;32289;42.688;23.330;2023-02-18T22:59:59;5.90;;;3.05;;
46561;SDS011;32289;42.688;23.330;2023-02-18T23:03:40;8.63;;;3.90;;
46561;SDS011;32289;42.688;23.330;2023-02-18T23:07:23;10.98;;;3.20;;
46561;SDS011;32289;42.688;23.330;2023-02-18T23:11:06;7.47;;;3.35;;
46561;SDS011;32289;42.688;23.330;2023-02-18T23:14:52;7.57;;;3.63;;
46561;SDS011;32289;42.688;23.330;2023-02-18T23:18:35;11.55;;;4.30;;
46561;SDS011;32289;42.688;23.330;2023-02-18T23:22:24;8.13;;;3.70;;
46561;SDS011;32289;42.688;23.330;2023-02-18T23:26:18;9.40;;;3.20;;
46561;SDS011;32289;42.688;23.330;2023-02-18T23:30:03;8.18;;;3.35;;
46561;SDS011;32289;42.688;23.330;2023-02-18T23:33:48;8.85;;;3.88;;
46561;SDS011;32289;42.688;23.330;2023-02-18T23:37:32;7.88;;;4.15;;
46561;SDS011;32289;42.688;23.330;2023-02-18T23:41:31;13.10;;;3.60;;
46561;SDS011;32289;42.688;23.330;2023-02-18T23:45:14;12.10;;;4.22;;
46561;SDS011;32289;42.688;23.330;2023-02-18T23:48:55;14.90;;;5.05;;
46561;SDS011;32289;42.688;23.330;2023-02-18T23:52:37;15.88;;;4.53;;
46561;SDS011;32289;42.688;23.330;2023-02-18T23:56:19;8.27;;;4.90;;
